createdAt,value
2018-04-17T00:02:19.491Z,14.80
2018-04-17T00:04:47.107Z,14.80
2018-04-17T00:07:14.744Z,14.80
2018-04-17T00:09:42.371Z,14.80
2018-04-17T00:12:10.016Z,14.80
2018-04-17T00:14:37.633Z,14.80
2018-04-17T00:17:05.218Z,14.80
2018-04-17T00:19:33.208Z,14.80
2018-04-17T00:22:00.830Z,14.80
2018-04-17T00:24:28.460Z,14.90
2018-04-17T00:26:56.044Z,14.90
2018-04-17T00:29:23.658Z,14.90
2018-04-17T00:31:51.259Z,14.90
2018-04-17T00:34:19.106Z,14.90
2018-04-17T00:36:47.517Z,14.90
2018-04-17T00:39:15.132Z,14.90
2018-04-17T00:41:42.738Z,14.80
2018-04-17T00:44:10.365Z,14.90
2018-04-17T00:46:37.959Z,14.80
2018-04-17T00:49:05.591Z,14.80
2018-04-17T00:51:33.183Z,14.70
2018-04-17T00:54:03.584Z,14.60
2018-04-17T00:56:31.220Z,14.60
2018-04-17T00:58:58.829Z,14.60
2018-04-17T01:01:26.423Z,14.60
2018-04-17T01:03:54.797Z,14.60
2018-04-17T01:06:23.149Z,14.50
2018-04-17T01:08:50.838Z,14.50
2018-04-17T01:11:18.484Z,14.50
2018-04-17T01:13:46.852Z,14.50
2018-04-17T01:16:14.472Z,14.50
2018-04-17T01:18:42.146Z,14.50
2018-04-17T01:21:09.847Z,14.40
2018-04-17T01:23:37.469Z,14.30
2018-04-17T01:26:05.134Z,14.30
2018-04-17T01:28:32.733Z,14.20
2018-04-17T01:31:00.361Z,14.20
2018-04-17T01:33:27.976Z,14.20
2018-04-17T01:35:56.357Z,14.10
2018-04-17T01:38:24.729Z,14.00
2018-04-17T01:40:53.181Z,14.00
2018-04-17T01:43:20.829Z,13.90
2018-04-17T01:45:48.435Z,14.00
2018-04-17T01:48:16.074Z,14.00
2018-04-17T01:50:43.805Z,14.00
2018-04-17T01:53:11.398Z,14.00
2018-04-17T01:55:39.933Z,13.90
2018-04-17T01:58:07.561Z,13.90
2018-04-17T02:00:35.168Z,14.00
2018-04-17T02:03:02.801Z,13.90
2018-04-17T02:05:30.399Z,13.90
2018-04-17T02:07:58.165Z,13.80
2018-04-17T02:10:25.780Z,13.70
2018-04-17T02:12:53.404Z,13.60
2018-04-17T02:15:21.088Z,13.60
2018-04-17T02:17:48.730Z,13.60
2018-04-17T02:20:16.370Z,13.70
2018-04-17T02:22:43.997Z,13.60
2018-04-17T02:25:11.608Z,13.60
2018-04-17T02:27:39.191Z,13.70
2018-04-17T02:30:06.812Z,13.70
2018-04-17T02:32:34.412Z,13.60
2018-04-17T02:35:02.056Z,13.60
2018-04-17T02:37:29.639Z,13.60
2018-04-17T02:39:57.562Z,13.60
2018-04-17T02:42:25.176Z,13.70
2018-04-17T02:44:52.808Z,13.60
2018-04-17T02:47:20.444Z,13.70
2018-04-17T02:49:48.031Z,13.70
2018-04-17T02:52:15.654Z,13.60
2018-04-17T02:54:43.224Z,13.50
2018-04-17T02:57:10.839Z,13.50
2018-04-17T02:59:38.467Z,13.40
2018-04-17T03:02:06.101Z,13.30
2018-04-17T03:04:34.669Z,13.40
2018-04-17T03:07:02.455Z,13.20
2018-04-17T03:09:30.057Z,13.30
2018-04-17T03:11:57.680Z,13.30
2018-04-17T03:14:25.260Z,13.30
2018-04-17T03:16:52.879Z,13.20
2018-04-17T03:19:20.512Z,13.20
2018-04-17T03:21:48.104Z,13.20
2018-04-17T03:24:15.686Z,13.20
2018-04-17T03:26:43.313Z,13.20
2018-04-17T03:29:10.904Z,13.00
2018-04-17T03:31:38.591Z,13.00
2018-04-17T03:34:06.334Z,13.00
2018-04-17T03:36:33.914Z,13.00
2018-04-17T03:39:01.791Z,12.90
2018-04-17T03:41:29.396Z,12.90
2018-04-17T03:43:57.039Z,12.80
2018-04-17T03:46:25.406Z,12.90
2018-04-17T03:48:53.791Z,12.90
2018-04-17T03:51:22.180Z,12.80
2018-04-17T03:53:49.762Z,12.80
2018-04-17T03:56:17.651Z,12.70
2018-04-17T03:58:45.235Z,12.70
2018-04-17T04:01:13.604Z,12.80
2018-04-17T04:03:41.231Z,12.80
2018-04-17T04:06:08.868Z,12.80
2018-04-17T04:08:36.479Z,12.80
2018-04-17T04:11:04.320Z,12.70
2018-04-17T04:13:31.979Z,12.80
2018-04-17T04:15:59.564Z,12.70
2018-04-17T04:18:38.968Z,12.70
2018-04-17T04:21:18.227Z,12.60
2018-04-17T04:23:57.592Z,12.60
2018-04-17T04:26:32.103Z,12.50
2018-04-17T04:28:59.768Z,12.50
2018-04-17T04:31:27.444Z,12.60
2018-04-17T04:33:55.073Z,12.70
2018-04-17T04:36:22.644Z,12.70
2018-04-17T04:38:50.290Z,12.70
2018-04-17T04:41:17.879Z,12.60
2018-04-17T04:43:46.149Z,12.50
2018-04-17T04:46:13.742Z,12.60
2018-04-17T04:48:41.469Z,12.70
2018-04-17T04:51:09.046Z,12.70
2018-04-17T04:53:36.678Z,12.70
2018-04-17T04:56:04.264Z,12.70
2018-04-17T04:58:32.723Z,12.60
2018-04-17T05:01:00.317Z,12.50
2018-04-17T05:03:28.835Z,12.40
2018-04-17T05:05:57.042Z,12.40
2018-04-17T05:08:24.635Z,12.40
2018-04-17T05:10:52.297Z,12.30
2018-04-17T05:13:19.930Z,12.30
2018-04-17T05:15:47.559Z,12.30
2018-04-17T05:18:15.352Z,12.40
2018-04-17T05:20:43.224Z,12.50
2018-04-17T05:23:10.986Z,12.50
2018-04-17T05:25:38.665Z,12.50
2018-04-17T05:28:06.241Z,12.50
2018-04-17T05:30:35.327Z,12.60
2018-04-17T05:33:02.965Z,12.60
2018-04-17T05:35:30.584Z,12.60
2018-04-17T05:37:58.214Z,12.70
2018-04-17T05:40:25.865Z,12.70
2018-04-17T05:42:53.511Z,12.60
2018-04-17T05:45:21.202Z,12.70
2018-04-17T05:47:48.842Z,12.70
2018-04-17T05:50:16.378Z,12.80
2018-04-17T05:52:44.050Z,12.80
2018-04-17T05:55:11.589Z,12.70
2018-04-17T05:57:39.888Z,12.90
2018-04-17T06:00:07.499Z,12.80
2018-04-17T06:02:35.217Z,12.90
2018-04-17T06:05:02.785Z,12.90
2018-04-17T06:07:30.380Z,13.00
2018-04-17T06:09:57.956Z,13.00
2018-04-17T06:12:26.288Z,13.00
2018-04-17T06:14:53.908Z,13.00
2018-04-17T06:17:21.456Z,13.10
2018-04-17T06:19:49.052Z,13.00
2018-04-17T06:22:16.657Z,13.10
2018-04-17T06:24:45.002Z,13.30
2018-04-17T06:27:12.656Z,13.30
2018-04-17T06:29:41.062Z,13.40
2018-04-17T06:32:08.786Z,13.50
2018-04-17T06:34:36.372Z,13.60
2018-04-17T06:37:03.936Z,13.60
2018-04-17T06:39:31.488Z,13.70
2018-04-17T06:41:59.931Z,14.00
2018-04-17T06:44:27.558Z,14.00
2018-04-17T06:46:55.098Z,14.20
2018-04-17T06:49:22.708Z,14.20
2018-04-17T06:51:50.248Z,14.30
2018-04-17T06:54:17.848Z,14.30
2018-04-17T06:56:45.434Z,14.40
2018-04-17T06:59:13.086Z,14.50
2018-04-17T07:01:40.702Z,14.70
2018-04-17T07:04:08.430Z,14.90
2018-04-17T07:06:36.039Z,14.90
2018-04-17T07:09:03.703Z,15.10
2018-04-17T07:11:31.400Z,15.20
2018-04-17T07:13:59.150Z,15.30
2018-04-17T07:16:26.710Z,15.50
2018-04-17T07:18:54.359Z,15.70
2018-04-17T07:21:22.030Z,15.80
2018-04-17T07:23:49.676Z,15.90
2018-04-17T07:26:17.249Z,16.10
2018-04-17T07:28:45.404Z,16.30
2018-04-17T07:31:13.071Z,16.50
2018-04-17T07:33:41.021Z,16.70
2018-04-17T07:36:09.361Z,17.10
2018-04-17T07:38:36.916Z,17.00
2018-04-17T07:41:04.543Z,17.30
2018-04-17T07:43:32.156Z,17.50
2018-04-17T07:45:59.756Z,17.60
2018-04-17T07:48:39.819Z,17.90
2018-04-17T07:51:07.467Z,17.90
2018-04-17T07:53:35.032Z,18.00
2018-04-17T07:56:02.620Z,18.20
2018-04-17T07:58:30.205Z,18.30
2018-04-17T08:00:57.937Z,18.40
2018-04-17T08:03:25.501Z,18.40
2018-04-17T08:05:53.318Z,18.50
2018-04-17T08:08:21.085Z,18.60
2018-04-17T08:10:48.672Z,18.70
2018-04-17T08:13:16.396Z,18.70
2018-04-17T08:15:44.201Z,18.80
2018-04-17T08:18:11.819Z,18.90
2018-04-17T08:20:39.387Z,18.90
2018-04-17T08:23:06.953Z,18.90
2018-04-17T08:25:35.288Z,19.10
2018-04-17T08:28:02.862Z,19.10
2018-04-17T08:30:30.447Z,19.20
2018-04-17T08:32:58.076Z,19.20
2018-04-17T08:35:25.723Z,19.20
2018-04-17T08:37:53.647Z,19.20
2018-04-17T08:40:21.252Z,19.30
2018-04-17T08:42:48.935Z,19.20
2018-04-17T08:45:16.529Z,19.30
2018-04-17T08:47:44.867Z,19.30
2018-04-17T08:50:12.469Z,19.30
2018-04-17T08:52:40.102Z,19.40
2018-04-17T08:55:07.833Z,19.40
2018-04-17T08:57:35.435Z,19.40
2018-04-17T09:00:02.975Z,19.50
2018-04-17T09:02:31.008Z,19.50
2018-04-17T09:04:58.599Z,19.60
2018-04-17T09:07:26.316Z,19.60
2018-04-17T09:09:53.906Z,19.60
2018-04-17T09:12:21.481Z,19.60
2018-04-17T09:14:49.082Z,19.60
2018-04-17T09:17:17.431Z,19.60
2018-04-17T09:19:45.011Z,19.50
2018-04-17T09:22:12.552Z,19.50
2018-04-17T09:24:40.204Z,19.60
2018-04-17T09:27:07.843Z,19.50
2018-04-17T09:29:35.628Z,19.60
2018-04-17T09:32:03.867Z,19.50
2018-04-17T09:34:32.405Z,19.60
2018-04-17T09:36:59.981Z,19.60
2018-04-17T09:39:27.624Z,19.60
2018-04-17T09:41:55.292Z,19.60
2018-04-17T09:44:22.907Z,19.70
2018-04-17T09:46:50.508Z,19.70
2018-04-17T09:49:18.125Z,19.70
2018-04-17T09:51:45.715Z,19.70
2018-04-17T09:54:14.615Z,19.60
2018-04-17T09:56:42.233Z,19.70
2018-04-17T09:59:09.909Z,19.70
2018-04-17T10:01:37.546Z,19.70
2018-04-17T10:04:05.938Z,19.60
2018-04-17T10:06:34.363Z,19.20
2018-04-17T10:09:02.096Z,19.60
2018-04-17T10:11:29.791Z,19.70
2018-04-17T10:13:57.454Z,19.80
2018-04-17T10:16:25.518Z,19.70
2018-04-17T10:18:54.059Z,19.80
2018-04-17T10:21:23.269Z,19.70
2018-04-17T10:23:50.920Z,19.70
2018-04-17T10:26:18.641Z,19.70
2018-04-17T10:28:46.292Z,19.70
2018-04-17T10:31:13.951Z,19.70
2018-04-17T10:33:41.526Z,19.70
2018-04-17T10:36:09.412Z,19.70
2018-04-17T10:38:37.116Z,19.70
2018-04-17T10:41:04.908Z,19.70
2018-04-17T10:43:32.508Z,19.70
2018-04-17T10:46:00.088Z,19.80
2018-04-17T10:48:27.707Z,19.80
2018-04-17T10:50:55.258Z,19.80
2018-04-17T10:53:22.894Z,19.90
2018-04-17T10:55:50.490Z,19.90
2018-04-17T10:58:18.043Z,19.90
2018-04-17T11:00:45.575Z,19.90
2018-04-17T11:03:13.209Z,19.90
2018-04-17T11:05:41.922Z,19.90
2018-04-17T11:08:09.506Z,19.90
2018-04-17T11:10:37.068Z,19.90
2018-04-17T11:13:04.708Z,19.90
2018-04-17T11:15:32.367Z,20.00
2018-04-17T11:17:59.928Z,20.10
2018-04-17T11:20:27.727Z,20.10
2018-04-17T11:22:55.510Z,20.00
2018-04-17T11:25:23.117Z,20.00
2018-04-17T11:27:50.709Z,20.00
2018-04-17T11:30:18.400Z,20.00
2018-04-17T11:32:46.019Z,20.00
2018-04-17T11:35:13.838Z,20.00
2018-04-17T11:37:42.170Z,20.00
2018-04-17T11:40:09.837Z,20.00
2018-04-17T11:42:37.580Z,20.10
2018-04-17T11:45:05.300Z,20.10
2018-04-17T11:47:32.886Z,20.20
2018-04-17T11:50:01.317Z,20.20
2018-04-17T11:52:28.907Z,20.20
2018-04-17T11:54:56.824Z,20.20
2018-04-17T11:57:29.564Z,20.30
2018-04-17T11:59:57.887Z,20.30
2018-04-17T12:02:25.475Z,20.30
2018-04-17T12:04:53.014Z,20.40
2018-04-17T12:07:20.615Z,20.40
2018-04-17T12:09:48.951Z,20.40
2018-04-17T12:12:17.349Z,20.40
2018-04-17T12:14:45.097Z,20.40
2018-04-17T12:17:13.337Z,20.50
2018-04-17T12:19:41.034Z,20.60
2018-04-17T12:22:08.629Z,20.70
2018-04-17T12:24:36.193Z,20.70
2018-04-17T12:27:03.816Z,20.60
2018-04-17T12:29:31.394Z,20.60
2018-04-17T12:31:58.938Z,20.60
2018-04-17T12:34:27.542Z,20.70
2018-04-17T12:36:55.905Z,20.90
2018-04-17T12:39:23.476Z,20.90
2018-04-17T12:41:51.059Z,20.90
2018-04-17T12:44:19.494Z,21.00
2018-04-17T12:46:47.284Z,21.00
2018-04-17T12:49:15.667Z,21.00
2018-04-17T12:51:44.036Z,21.10
2018-04-17T12:54:12.646Z,21.10
2018-04-17T12:56:40.208Z,21.10
2018-04-17T12:59:08.497Z,21.10
2018-04-17T13:01:36.153Z,21.10
2018-04-17T13:04:03.702Z,21.20
2018-04-17T13:06:31.528Z,21.20
2018-04-17T13:08:59.108Z,21.20
2018-04-17T13:11:26.859Z,21.20
2018-04-17T13:13:54.425Z,21.20
2018-04-17T13:16:22.027Z,21.20
2018-04-17T13:18:49.604Z,21.30
2018-04-17T13:21:17.142Z,21.20
2018-04-17T13:23:44.703Z,21.30
2018-04-17T13:26:12.260Z,21.20
2018-04-17T13:28:39.879Z,21.20
2018-04-17T13:31:07.505Z,21.20
2018-04-17T13:33:35.205Z,21.10
2018-04-17T13:36:02.877Z,21.00
2018-04-17T13:38:31.267Z,21.00
2018-04-17T13:40:59.720Z,21.10
2018-04-17T13:43:27.288Z,21.10
2018-04-17T13:45:54.866Z,21.10
2018-04-17T13:48:23.204Z,21.10
2018-04-17T13:50:50.734Z,21.10
2018-04-17T13:53:18.357Z,21.10
2018-04-17T13:55:46.000Z,21.10
2018-04-17T13:58:13.565Z,21.20
2018-04-17T14:00:41.200Z,21.30
2018-04-17T14:03:08.752Z,21.30
2018-04-17T14:05:36.318Z,21.30
2018-04-17T14:08:03.989Z,21.40
2018-04-17T14:10:31.596Z,21.40
2018-04-17T14:13:01.127Z,21.60
2018-04-17T14:15:28.705Z,21.50
2018-04-17T14:17:56.347Z,21.60
2018-04-17T14:20:23.939Z,21.60
2018-04-17T14:22:51.487Z,21.50
2018-04-17T14:25:19.172Z,21.50
2018-04-17T14:27:46.952Z,21.50
2018-04-17T14:30:14.599Z,21.50
2018-04-17T14:32:42.189Z,21.50
2018-04-17T14:35:09.873Z,21.40
2018-04-17T14:37:38.177Z,21.30
2018-04-17T14:40:05.754Z,21.30
2018-04-17T14:42:33.411Z,21.30
2018-04-17T14:45:01.282Z,21.20
2018-04-17T14:47:29.029Z,21.20
2018-04-17T14:49:56.667Z,21.30
2018-04-17T14:52:24.268Z,21.30
2018-04-17T14:54:51.869Z,21.30
2018-04-17T14:57:19.544Z,21.30
2018-04-17T14:59:47.158Z,21.20
2018-04-17T15:02:14.695Z,21.10
2018-04-17T15:04:42.395Z,21.10
2018-04-17T15:07:09.932Z,21.10
2018-04-17T15:09:37.511Z,21.00
2018-04-17T15:12:05.095Z,20.90
2018-04-17T15:14:32.748Z,20.90
2018-04-17T15:17:00.641Z,19.90
2018-04-17T15:19:28.302Z,20.90
2018-04-17T15:21:56.002Z,20.90
2018-04-17T15:24:23.666Z,20.80
2018-04-17T15:26:51.299Z,20.80
2018-04-17T15:29:18.900Z,20.80
2018-04-17T15:31:46.511Z,20.80
2018-04-17T15:34:14.417Z,20.80
2018-04-17T15:36:42.255Z,20.80
2018-04-17T15:39:09.859Z,20.90
2018-04-17T15:41:37.519Z,20.90
2018-04-17T15:44:05.066Z,21.00
2018-04-17T15:46:32.650Z,21.00
2018-04-17T15:49:00.209Z,21.00
2018-04-17T15:51:27.866Z,21.10
2018-04-17T15:53:55.428Z,21.20
2018-04-17T15:56:23.000Z,21.20
2018-04-17T15:58:50.593Z,21.20
2018-04-17T16:01:18.307Z,21.20
2018-04-17T16:03:45.915Z,21.20
2018-04-17T16:06:13.509Z,21.20
2018-04-17T16:08:41.114Z,21.30
2018-04-17T16:11:08.659Z,21.20
2018-04-17T16:13:36.227Z,21.30
2018-04-17T16:16:04.201Z,21.30
2018-04-17T16:18:31.950Z,21.30
2018-04-17T16:20:59.576Z,21.30
2018-04-17T16:23:27.153Z,21.30
2018-04-17T16:25:54.702Z,21.30
2018-04-17T16:28:22.335Z,21.20
2018-04-17T16:30:49.910Z,21.20
2018-04-17T16:33:17.644Z,21.20
2018-04-17T16:35:46.333Z,21.20
2018-04-17T16:38:14.676Z,21.20
2018-04-17T16:40:42.989Z,21.10
2018-04-17T16:43:11.331Z,21.10
2018-04-17T16:45:38.891Z,21.10
2018-04-17T16:48:06.473Z,21.00
2018-04-17T16:50:34.860Z,21.00
2018-04-17T16:53:02.461Z,21.00
2018-04-17T16:55:30.037Z,21.00
2018-04-17T16:57:57.618Z,20.90
2018-04-17T17:00:25.231Z,20.90
2018-04-17T17:02:52.810Z,20.90
2018-04-17T17:05:20.400Z,20.90
2018-04-17T17:07:47.971Z,20.90
2018-04-17T17:10:15.652Z,20.90
2018-04-17T17:12:44.118Z,20.80
2018-04-17T17:15:11.713Z,20.80
2018-04-17T17:17:39.285Z,20.70
2018-04-17T17:20:06.931Z,20.70
2018-04-17T17:22:34.531Z,20.70
2018-04-17T17:25:02.095Z,20.70
2018-04-17T17:27:29.695Z,20.70
2018-04-17T17:29:58.030Z,20.60
2018-04-17T17:32:25.617Z,20.60
2018-04-17T17:34:53.176Z,20.60
2018-04-17T17:37:20.715Z,20.60
2018-04-17T17:39:48.378Z,20.60
2018-04-17T17:42:15.935Z,20.50
2018-04-17T17:44:43.519Z,20.50
2018-04-17T17:47:11.110Z,20.50
2018-04-17T17:49:38.673Z,20.50
2018-04-17T17:52:06.254Z,20.50
2018-04-17T17:54:33.942Z,20.40
2018-04-17T17:57:01.482Z,20.40
2018-04-17T17:59:29.056Z,20.40
2018-04-17T18:01:56.599Z,20.40
2018-04-17T18:04:24.357Z,20.40
2018-04-17T18:06:51.946Z,20.40
2018-04-17T18:09:19.545Z,20.40
2018-04-17T18:11:47.827Z,20.40
2018-04-17T18:14:15.368Z,20.40
2018-04-17T18:16:43.768Z,20.40
2018-04-17T18:19:11.292Z,20.30
2018-04-17T18:21:38.842Z,20.30
2018-04-17T18:24:06.416Z,20.30
2018-04-17T18:26:33.997Z,20.20
2018-04-17T18:29:01.574Z,20.20
2018-04-17T18:31:29.138Z,20.20
2018-04-17T18:33:56.657Z,20.10
2018-04-17T18:36:24.220Z,20.00
2018-04-17T18:38:51.853Z,20.00
2018-04-17T18:41:19.508Z,20.00
2018-04-17T18:43:47.103Z,19.90
2018-04-17T18:46:14.824Z,19.90
2018-04-17T18:48:42.409Z,19.90
2018-04-17T18:51:10.277Z,19.80
2018-04-17T18:53:38.897Z,19.80
2018-04-17T18:56:06.451Z,19.80
2018-04-17T18:58:34.848Z,19.70
2018-04-17T19:01:02.394Z,19.70
2018-04-17T19:03:30.027Z,19.70
2018-04-17T19:05:57.669Z,19.60
2018-04-17T19:08:25.194Z,19.60
2018-04-17T19:10:52.784Z,19.60
2018-04-17T19:13:20.382Z,19.60
2018-04-17T19:15:47.934Z,19.50
2018-04-17T19:18:15.504Z,19.50
2018-04-17T19:20:43.097Z,19.50
2018-04-17T19:23:10.657Z,19.40
2018-04-17T19:25:38.185Z,19.40
2018-04-17T19:28:06.522Z,19.30
2018-04-17T19:30:34.170Z,19.30
2018-04-17T19:33:01.815Z,19.20
2018-04-17T19:35:29.395Z,19.20
2018-04-17T19:37:56.981Z,19.20
2018-04-17T19:40:24.531Z,19.10
2018-04-17T19:42:52.094Z,19.20
2018-04-17T19:45:19.647Z,19.10
2018-04-17T19:47:47.186Z,19.10
2018-04-17T19:50:14.750Z,19.10
2018-04-17T19:52:42.332Z,19.00
2018-04-17T19:55:09.893Z,19.00
2018-04-17T19:57:37.539Z,19.00
2018-04-17T20:00:05.135Z,18.90
2018-04-17T20:02:32.753Z,18.90
2018-04-17T20:05:00.363Z,18.80
2018-04-17T20:07:27.984Z,18.70
2018-04-17T20:09:55.652Z,18.70
2018-04-17T20:12:23.178Z,18.70
2018-04-17T20:14:50.876Z,18.60
2018-04-17T20:17:20.852Z,18.50
2018-04-17T20:19:48.595Z,18.40
2018-04-17T20:22:16.920Z,18.20
2018-04-17T20:24:44.507Z,18.20
2018-04-17T20:27:12.160Z,18.20
2018-04-17T20:29:39.754Z,18.20
2018-04-17T20:32:07.276Z,18.10
2018-04-17T20:34:34.876Z,18.00
2018-04-17T20:37:03.202Z,18.10
2018-04-17T20:39:30.784Z,18.10
2018-04-17T20:41:58.367Z,18.00
2018-04-17T20:44:25.932Z,18.00
2018-04-17T20:46:58.080Z,17.80
2018-04-17T20:49:25.799Z,17.90
2018-04-17T20:51:53.344Z,17.90
2018-04-17T20:54:20.912Z,17.80
2018-04-17T20:56:48.472Z,17.80
2018-04-17T20:59:16.023Z,17.80
2018-04-17T21:01:43.579Z,17.80
2018-04-17T21:04:11.106Z,17.80
2018-04-17T21:06:42.789Z,17.70
2018-04-17T21:09:10.420Z,17.60
2018-04-17T21:11:39.994Z,17.60
2018-04-17T21:14:08.711Z,17.60
2018-04-17T21:16:36.294Z,17.50
2018-04-17T21:19:03.878Z,17.40
2018-04-17T21:21:34.476Z,17.40
2018-04-17T21:24:02.077Z,17.30
2018-04-17T21:26:29.636Z,17.30
2018-04-17T21:28:57.195Z,17.20
2018-04-17T21:31:24.747Z,17.20
2018-04-17T21:33:52.330Z,17.20
2018-04-17T21:36:19.875Z,17.20
2018-04-17T21:38:47.440Z,17.10
2018-04-17T21:41:15.027Z,17.20
2018-04-17T21:43:42.600Z,17.20
2018-04-17T21:46:10.165Z,17.10
2018-04-17T21:48:38.530Z,17.10
2018-04-17T21:51:06.202Z,17.10
2018-04-17T21:53:33.764Z,17.10
2018-04-17T21:56:01.344Z,17.10
2018-04-17T21:58:28.891Z,17.00
2018-04-17T22:00:56.500Z,17.00
2018-04-17T22:03:24.099Z,16.90
2018-04-17T22:05:51.672Z,16.90
2018-04-17T22:08:19.244Z,16.90
2018-04-17T22:10:46.774Z,16.80
2018-04-17T22:13:14.399Z,16.70
2018-04-17T22:15:41.967Z,16.60
2018-04-17T22:18:09.783Z,16.60
2018-04-17T22:20:37.369Z,16.60
2018-04-17T22:23:05.677Z,16.60
2018-04-17T22:25:33.356Z,16.50
2018-04-17T22:28:00.913Z,16.50
2018-04-17T22:30:28.459Z,16.40
2018-04-17T22:32:56.058Z,16.40
2018-04-17T22:35:24.296Z,16.40
2018-04-17T22:37:51.839Z,16.40
2018-04-17T22:40:19.416Z,16.40
2018-04-17T22:42:46.970Z,16.40
2018-04-17T22:45:14.537Z,16.30
2018-04-17T22:47:42.139Z,16.30
2018-04-17T22:50:09.746Z,16.30
2018-04-17T22:52:37.294Z,15.60
2018-04-17T22:55:04.873Z,16.20
2018-04-17T22:57:32.425Z,16.20
2018-04-17T22:59:59.949Z,16.20
2018-04-17T23:02:27.507Z,16.20
2018-04-17T23:04:55.844Z,16.10
2018-04-17T23:07:23.409Z,16.00
2018-04-17T23:09:50.968Z,16.00
2018-04-17T23:12:18.512Z,15.90
2018-04-17T23:14:46.069Z,15.90
2018-04-17T23:17:13.632Z,15.90
2018-04-17T23:19:41.204Z,15.90
2018-04-17T23:22:08.797Z,15.90
2018-04-17T23:24:36.350Z,15.70
2018-04-17T23:27:03.904Z,15.60
2018-04-17T23:29:31.487Z,15.60
2018-04-17T23:31:59.057Z,15.70
2018-04-17T23:34:26.585Z,15.80
2018-04-17T23:36:54.161Z,15.60
2018-04-17T23:39:21.723Z,15.70
2018-04-17T23:41:49.261Z,15.60
2018-04-17T23:44:16.876Z,15.60
2018-04-17T23:46:44.466Z,15.60
2018-04-17T23:49:12.023Z,15.60
2018-04-17T23:51:39.556Z,15.50
2018-04-17T23:54:07.132Z,15.40
2018-04-17T23:56:34.705Z,15.40
2018-04-17T23:59:02.263Z,15.40
